Time;durP1;ratioP1;P1;durP2;ratioP2;P2;SDS_P1;SDS_P2;PMS_P1;PMS_P2;Temp;Humidity;BMP_temperature;BMP_pressure;BME280_temperature;BME280_humidity;BME280_pressure;Samples;Min_cycle;Max_cycle;Signal;HPM_P1;HPM_P2
2022/05/04 00:01:21;;;;;;;65.07;32.10;;;;;;;;;;6235251;22;20008;-46
2022/05/04 00:03:46;;;;;;;67.18;32.78;;;;;;;;;;6234614;22;20035;-44
2022/05/04 00:06:12;;;;;;;65.53;31.60;;;;;;;;;;6233880;22;20083;-48
2022/05/04 00:08:37;;;;;;;61.47;31.05;;;;;;;;;;6231584;22;20543;-44
2022/05/04 00:11:03;;;;;;;74.00;32.45;;;;;;;;;;6236428;22;20312;-46
2022/05/04 00:13:28;;;;;;;68.65;33.10;;;;;;;;;;6232869;22;20016;-47
2022/05/04 00:15:54;;;;;;;58.75;30.27;;;;;;;;;;6236523;22;20024;-44
2022/05/04 00:18:19;;;;;;;58.78;31.17;;;;;;;;;;6233435;22;20007;-46
2022/05/04 00:20:44;;;;;;;67.15;31.73;;;;;;;;;;6236422;22;20008;-47
2022/05/04 00:23:10;;;;;;;59.28;31.17;;;;;;;;;;6234673;22;20027;-47
2022/05/04 00:25:35;;;;;;;65.38;31.45;;;;;;;;;;6235043;22;20004;-46
2022/05/04 00:28:02;;;;;;;60.03;32.10;;;;;;;;;;6235322;22;20011;-44
2022/05/04 00:30:28;;;;;;;61.05;32.22;;;;;;;;;;6234407;22;20024;-43
2022/05/04 00:32:53;;;;;;;68.07;33.45;;;;;;;;;;6233991;22;20039;-45
2022/05/04 00:35:18;;;;;;;60.63;29.52;;;;;;;;;;6234953;22;20055;-44
2022/05/04 00:37:44;;;;;;;63.50;32.28;;;;;;;;;;6236272;22;20280;-45
2022/05/04 00:40:09;;;;;;;65.72;33.10;;;;;;;;;;6236465;22;20008;-44
2022/05/04 00:42:35;;;;;;;67.60;33.17;;;;;;;;;;6235003;22;20060;-47
2022/05/04 00:45:00;;;;;;;67.20;33.25;;;;;;;;;;6237478;22;20187;-46
2022/05/04 00:47:25;;;;;;;67.75;32.97;;;;;;;;;;6235350;22;20016;-46
2022/05/04 00:49:52;;;;;;;69.72;35.15;;;;;;;;;;6235615;22;20020;-45
2022/05/04 00:52:17;;;;;;;82.30;35.63;;;;;;;;;;6234907;22;20027;-45
2022/05/04 00:54:43;;;;;;;72.93;34.00;;;;;;;;;;6237401;22;20035;-44
2022/05/04 00:57:10;;;;;;;68.03;34.40;;;;;;;;;;6209245;23;20263;-45
2022/05/04 00:59:36;;;;;;;71.22;35.45;;;;;;;;;;6237102;22;20012;-44
2022/05/04 01:02:01;;;;;;;75.20;35.40;;;;;;;;;;6236209;22;20011;-46
2022/05/04 01:04:27;;;;;;;81.07;37.55;;;;;;;;;;6236076;22;20013;-45
2022/05/04 01:06:52;;;;;;;77.13;37.15;;;;;;;;;;6236435;22;20012;-44
2022/05/04 01:09:17;;;;;;;86.07;39.38;;;;;;;;;;6236449;22;20083;-45
2022/05/04 01:11:43;;;;;;;77.78;38.97;;;;;;;;;;6237075;22;20024;-45
2022/05/04 01:14:10;;;;;;;79.03;37.70;;;;;;;;;;6237844;22;20008;-49
2022/05/04 01:16:37;;;;;;;80.50;38.45;;;;;;;;;;6235500;22;20016;-46
2022/05/04 01:19:02;;;;;;;77.15;38.03;;;;;;;;;;6210054;23;20087;-45
2022/05/04 01:21:28;;;;;;;80.50;39.08;;;;;;;;;;6234875;22;20111;-45
2022/05/04 01:23:53;;;;;;;81.32;41.55;;;;;;;;;;6237765;22;20132;-45
2022/05/04 01:26:19;;;;;;;83.75;40.85;;;;;;;;;;6208034;22;20016;-44
2022/05/04 01:28:45;;;;;;;95.65;42.60;;;;;;;;;;6237279;22;20445;-45
2022/05/04 01:31:10;;;;;;;85.13;40.72;;;;;;;;;;6235234;22;20778;-45
2022/05/04 01:33:35;;;;;;;86.00;38.58;;;;;;;;;;6237000;22;20036;-49
2022/05/04 01:36:01;;;;;;;84.82;39.85;;;;;;;;;;6234927;22;20015;-45
2022/05/04 01:38:26;;;;;;;78.63;38.55;;;;;;;;;;6209928;22;20019;-46
2022/05/04 01:40:52;;;;;;;87.68;37.40;;;;;;;;;;6235230;22;20028;-44
2022/05/04 01:43:17;;;;;;;84.85;42.63;;;;;;;;;;6237009;22;20028;-46
2022/05/04 01:45:42;;;;;;;94.30;40.60;;;;;;;;;;6235012;22;20008;-45
2022/05/04 01:48:07;;;;;;;84.78;40.03;;;;;;;;;;6236624;22;20012;-46
2022/05/04 01:50:33;;;;;;;84.47;40.72;;;;;;;;;;6232962;22;20026;-45
2022/05/04 01:52:58;;;;;;;83.53;39.05;;;;;;;;;;6237862;22;20087;-46
2022/05/04 01:55:25;;;;;;;93.43;42.22;;;;;;;;;;6234183;22;20012;-46
2022/05/04 01:57:50;;;;;;;90.20;39.75;;;;;;;;;;6236751;22;20008;-46
2022/05/04 02:00:16;;;;;;;87.28;39.13;;;;;;;;;;6234568;22;20486;-46
2022/05/04 02:02:41;;;;;;;72.50;35.60;;;;;;;;;;6237680;22;20027;-46
2022/05/04 02:05:07;;;;;;;82.38;40.22;;;;;;;;;;6235506;22;20008;-46
2022/05/04 02:07:36;;;;;;;80.97;39.28;;;;;;;;;;6237639;22;20024;-46
2022/05/04 02:10:05;;;;;;;91.47;43.20;;;;;;;;;;6228471;22;20050;-48
2022/05/04 02:12:30;;;;;;;74.13;36.27;;;;;;;;;;6235214;22;20080;-45
2022/05/04 02:14:56;;;;;;;88.82;39.15;;;;;;;;;;6235743;22;20230;-44
2022/05/04 02:17:21;;;;;;;81.32;39.25;;;;;;;;;;6233888;22;20015;-44
2022/05/04 02:19:46;;;;;;;80.55;38.08;;;;;;;;;;6238383;22;20023;-45
2022/05/04 02:22:11;;;;;;;82.47;39.38;;;;;;;;;;6232524;22;20359;-44
2022/05/04 02:24:37;;;;;;;89.25;41.00;;;;;;;;;;6235819;22;20011;-45
2022/05/04 02:27:02;;;;;;;79.95;38.42;;;;;;;;;;6206672;23;20008;-45
2022/05/04 02:29:27;;;;;;;77.63;36.80;;;;;;;;;;6234807;22;20024;-44
2022/05/04 02:31:53;;;;;;;88.28;38.00;;;;;;;;;;6234591;22;20016;-47
2022/05/04 02:34:18;;;;;;;81.20;36.92;;;;;;;;;;6235630;22;20004;-49
2022/05/04 02:39:27;;;;;;;82.18;37.28;;;;;;;;;;6232365;22;20035;-45
2022/05/04 02:41:53;;;;;;;77.10;35.67;;;;;;;;;;6235758;22;20012;-46
2022/05/04 02:44:18;;;;;;;82.25;38.67;;;;;;;;;;6234774;22;20035;-45
2022/05/04 02:46:43;;;;;;;77.78;39.35;;;;;;;;;;6237626;22;20062;-44
2022/05/04 02:49:09;;;;;;;79.65;37.33;;;;;;;;;;6233937;22;20008;-45
2022/05/04 02:51:34;;;;;;;78.60;36.05;;;;;;;;;;6235707;22;20020;-45
2022/05/04 02:53:59;;;;;;;85.35;37.75;;;;;;;;;;6235147;22;20015;-47
2022/05/04 02:56:24;;;;;;;72.03;34.60;;;;;;;;;;6233570;22;20012;-45
2022/05/04 02:58:53;;;;;;;74.80;33.55;;;;;;;;;;6234556;22;20012;-44
2022/05/04 03:04:06;;;;;;;74.50;34.28;;;;;;;;;;6236028;22;20069;-45
2022/05/04 03:06:32;;;;;;;67.88;32.95;;;;;;;;;;6233898;22;20079;-46
2022/05/04 03:08:57;;;;;;;69.18;32.38;;;;;;;;;;6233851;22;20013;-45
2022/05/04 03:14:07;;;;;;;70.63;32.80;;;;;;;;;;6236372;22;20079;-44
2022/05/04 03:16:33;;;;;;;67.00;31.10;;;;;;;;;;6234084;22;20016;-45
2022/05/04 03:18:58;;;;;;;63.67;30.15;;;;;;;;;;6235763;22;20023;-44
2022/05/04 03:21:24;;;;;;;70.43;30.88;;;;;;;;;;6231973;22;20060;-44
2022/05/04 03:23:49;;;;;;;66.10;31.23;;;;;;;;;;6236035;22;20032;-44
2022/05/04 03:26:14;;;;;;;65.97;31.83;;;;;;;;;;6232255;22;20102;-47
2022/05/04 03:28:40;;;;;;;70.63;31.42;;;;;;;;;;6235144;22;20012;-45
2022/05/04 03:31:05;;;;;;;71.93;31.98;;;;;;;;;;6233918;22;20024;-45
2022/05/04 03:33:30;;;;;;;72.13;31.92;;;;;;;;;;6235013;22;20012;-45
2022/05/04 03:35:55;;;;;;;69.20;33.20;;;;;;;;;;6233987;22;20098;-48
2022/05/04 03:38:21;;;;;;;64.65;30.58;;;;;;;;;;6234514;22;20012;-45
2022/05/04 03:40:46;;;;;;;71.20;33.30;;;;;;;;;;6233964;22;20004;-44
2022/05/04 03:43:11;;;;;;;64.80;30.55;;;;;;;;;;6236023;22;20091;-44
2022/05/04 03:45:36;;;;;;;68.25;31.33;;;;;;;;;;6232797;22;20008;-46
2022/05/04 03:48:02;;;;;;;61.55;30.70;;;;;;;;;;6236213;22;20012;-45
2022/05/04 03:50:27;;;;;;;62.20;29.52;;;;;;;;;;6232326;22;20054;-46
2022/05/04 03:52:52;;;;;;;59.15;30.58;;;;;;;;;;6236410;22;20016;-47
2022/05/04 03:55:17;;;;;;;57.92;29.33;;;;;;;;;;6233518;22;20004;-44
2022/05/04 03:57:43;;;;;;;65.13;30.75;;;;;;;;;;6236400;22;20076;-45
2022/05/04 04:00:09;;;;;;;65.18;31.42;;;;;;;;;;6206476;23;20008;-46
2022/05/04 04:02:35;;;;;;;64.88;29.50;;;;;;;;;;6235530;22;20008;-44
2022/05/04 04:05:00;;;;;;;54.33;26.90;;;;;;;;;;6234303;22;20044;-45
2022/05/04 04:07:26;;;;;;;61.30;30.42;;;;;;;;;;6235677;22;20019;-47
2022/05/04 04:09:51;;;;;;;57.95;28.10;;;;;;;;;;6234657;22;20218;-43
2022/05/04 04:12:16;;;;;;;58.13;28.40;;;;;;;;;;6237461;22;20016;-45
2022/05/04 04:14:42;;;;;;;55.38;27.73;;;;;;;;;;6236453;22;20673;-46
2022/05/04 04:17:07;;;;;;;57.72;29.17;;;;;;;;;;6237491;22;20068;-46
2022/05/04 04:19:33;;;;;;;60.50;28.65;;;;;;;;;;6236107;22;20016;-45
2022/05/04 04:21:58;;;;;;;58.85;27.50;;;;;;;;;;6237853;22;20019;-44
2022/05/04 04:24:23;;;;;;;62.40;27.67;;;;;;;;;;6236262;22;20376;-43
2022/05/04 04:26:49;;;;;;;53.30;26.02;;;;;;;;;;6237357;22;20718;-45
2022/05/04 04:29:14;;;;;;;57.13;23.83;;;;;;;;;;6236405;22;20150;-45
2022/05/04 04:31:40;;;;;;;59.95;27.08;;;;;;;;;;6236804;22;20020;-48
2022/05/04 04:34:07;;;;;;;46.33;23.92;;;;;;;;;;6237281;22;20087;-44
2022/05/04 04:36:32;;;;;;;56.13;26.35;;;;;;;;;;6237038;22;21389;-44
2022/05/04 04:38:58;;;;;;;52.97;25.15;;;;;;;;;;6236003;22;20016;-44
2022/05/04 04:41:23;;;;;;;57.65;26.00;;;;;;;;;;6209960;22;20016;-44
2022/05/04 04:43:48;;;;;;;57.78;27.40;;;;;;;;;;6236133;22;20016;-44
2022/05/04 04:46:13;;;;;;;59.28;26.75;;;;;;;;;;6236505;22;20038;-44
2022/05/04 04:48:39;;;;;;;62.83;31.05;;;;;;;;;;6237022;22;20035;-45
2022/05/04 04:51:04;;;;;;;62.65;29.35;;;;;;;;;;6205041;23;20047;-44
2022/05/04 04:53:29;;;;;;;60.58;28.02;;;;;;;;;;6205503;22;20016;-45
2022/05/04 04:55:55;;;;;;;63.83;30.30;;;;;;;;;;6207240;22;20021;-44
2022/05/04 04:58:20;;;;;;;66.93;27.40;;;;;;;;;;6206420;22;20004;-44
2022/05/04 05:00:45;;;;;;;63.75;28.77;;;;;;;;;;6207556;22;20047;-46
2022/05/04 05:03:11;;;;;;;64.57;29.05;;;;;;;;;;6206120;22;20005;-45
2022/05/04 05:05:39;;;;;;;63.72;28.70;;;;;;;;;;6206505;22;20013;-46
2022/05/04 05:08:05;;;;;;;64.03;28.95;;;;;;;;;;6205508;22;20019;-46
2022/05/04 05:10:30;;;;;;;63.25;29.38;;;;;;;;;;6206220;22;20016;-45
2022/05/04 05:12:55;;;;;;;66.05;30.15;;;;;;;;;;6206093;22;20013;-44
2022/05/04 05:18:05;;;;;;;70.38;32.08;;;;;;;;;;6205110;22;20031;-45
2022/05/04 05:20:33;;;;;;;67.30;30.88;;;;;;;;;;6206385;22;20013;-48
2022/05/04 05:22:58;;;;;;;71.70;33.10;;;;;;;;;;6202916;22;20064;-45
2022/05/04 05:25:24;;;;;;;76.53;32.53;;;;;;;;;;6204686;22;20405;-44
2022/05/04 05:27:49;;;;;;;68.63;31.70;;;;;;;;;;6203946;22;20009;-46
2022/05/04 05:30:14;;;;;;;77.57;33.00;;;;;;;;;;6204110;22;20024;-43
2022/05/04 05:32:40;;;;;;;75.45;34.15;;;;;;;;;;6203176;22;20297;-45
2022/05/04 05:35:05;;;;;;;67.90;30.80;;;;;;;;;;6204212;22;20036;-45
2022/05/04 05:37:31;;;;;;;72.07;31.50;;;;;;;;;;6202484;22;20044;-44
2022/05/04 05:39:56;;;;;;;60.65;30.48;;;;;;;;;;6204584;22;20036;-44
2022/05/04 05:42:21;;;;;;;69.47;30.20;;;;;;;;;;6202088;22;20016;-44
2022/05/04 05:44:46;;;;;;;66.47;32.30;;;;;;;;;;6204878;22;20015;-43
2022/05/04 05:47:13;;;;;;;57.33;29.77;;;;;;;;;;6201985;22;20655;-48
2022/05/04 05:49:38;;;;;;;67.18;30.95;;;;;;;;;;6204877;22;20012;-46
2022/05/04 05:52:06;;;;;;;58.38;29.90;;;;;;;;;;6227405;22;20038;-45
2022/05/04 05:54:32;;;;;;;60.72;27.83;;;;;;;;;;6233644;22;20130;-46
2022/05/04 05:56:57;;;;;;;60.35;28.98;;;;;;;;;;6232458;22;20012;-43
2022/05/04 05:59:22;;;;;;;54.85;27.92;;;;;;;;;;6206771;22;20012;-44
2022/05/04 06:01:47;;;;;;;65.45;29.52;;;;;;;;;;6232091;22;20012;-43
2022/05/04 06:04:13;;;;;;;63.92;29.88;;;;;;;;;;6233784;22;20008;-48
2022/05/04 06:06:38;;;;;;;69.45;30.08;;;;;;;;;;6233019;22;20038;-44
2022/05/04 06:09:03;;;;;;;55.95;28.50;;;;;;;;;;6234780;22;20073;-45
2022/05/04 06:11:31;;;;;;;53.55;26.60;;;;;;;;;;6205208;22;20090;-45
2022/05/04 06:13:56;;;;;;;57.55;26.25;;;;;;;;;;6234708;22;20008;-48
2022/05/04 06:16:21;;;;;;;58.42;25.65;;;;;;;;;;6232338;22;20069;-44
2022/05/04 06:18:46;;;;;;;55.85;26.65;;;;;;;;;;6234028;22;20016;-47
2022/05/04 06:21:12;;;;;;;55.45;26.70;;;;;;;;;;6233359;22;20066;-46
2022/05/04 06:23:37;;;;;;;55.75;25.75;;;;;;;;;;6204572;23;20026;-46
2022/05/04 06:26:02;;;;;;;55.17;27.13;;;;;;;;;;6233895;22;20012;-46
2022/05/04 06:28:27;;;;;;;56.60;24.42;;;;;;;;;;6231414;22;20046;-47
2022/05/04 06:36:20;;;;;;;56.05;27.60;;;;;;;;;;6233256;22;20023;-46
2022/05/04 06:38:46;;;;;;;53.70;23.65;;;;;;;;;;6231792;22;20011;-45
2022/05/04 06:41:11;;;;;;;54.22;25.10;;;;;;;;;;6233367;22;20419;-45
2022/05/04 06:43:36;;;;;;;52.10;23.63;;;;;;;;;;6230919;22;20019;-47
2022/05/04 06:46:01;;;;;;;62.35;24.30;;;;;;;;;;6233305;22;20835;-48
2022/05/04 06:48:27;;;;;;;49.80;23.35;;;;;;;;;;6203773;22;20088;-48
2022/05/04 06:50:52;;;;;;;47.80;23.08;;;;;;;;;;6232164;22;20028;-48
2022/05/04 06:53:17;;;;;;;46.97;22.45;;;;;;;;;;6234594;22;20019;-45
2022/05/04 06:55:42;;;;;;;52.80;24.35;;;;;;;;;;6235690;22;20008;-47
2022/05/04 06:58:08;;;;;;;50.45;24.08;;;;;;;;;;6235826;22;20334;-44
2022/05/04 07:00:33;;;;;;;49.58;20.95;;;;;;;;;;6233129;22;20084;-48
2022/05/04 07:02:59;;;;;;;50.53;23.38;;;;;;;;;;6236097;22;20752;-47
2022/05/04 07:05:24;;;;;;;40.75;22.27;;;;;;;;;;6232544;22;20012;-44
2022/05/04 07:07:49;;;;;;;44.83;21.15;;;;;;;;;;6233071;22;20004;-44
2022/05/04 07:10:14;;;;;;;45.03;20.70;;;;;;;;;;6231636;22;20020;-43
2022/05/04 07:12:40;;;;;;;45.05;22.17;;;;;;;;;;6234044;22;20015;-46
2022/05/04 07:15:05;;;;;;;40.42;20.33;;;;;;;;;;6228777;22;20090;-47
2022/05/04 07:17:30;;;;;;;40.42;21.13;;;;;;;;;;6229048;22;20012;-46
2022/05/04 07:19:55;;;;;;;39.47;19.90;;;;;;;;;;6206372;23;20578;-50
2022/05/04 07:22:24;;;;;;;42.28;20.05;;;;;;;;;;6225705;22;20012;-45
2022/05/04 07:24:49;;;;;;;48.55;22.65;;;;;;;;;;6216331;22;20197;-48
2022/05/04 07:27:14;;;;;;;43.60;20.35;;;;;;;;;;6224597;22;21013;-46
2022/05/04 07:29:42;;;;;;;43.58;22.48;;;;;;;;;;6226216;22;20008;-45
2022/05/04 07:32:07;;;;;;;39.78;20.38;;;;;;;;;;6235009;22;20161;-46
2022/05/04 07:34:33;;;;;;;46.75;22.00;;;;;;;;;;6232986;22;20633;-46
2022/05/04 07:36:58;;;;;;;44.20;19.80;;;;;;;;;;6235563;22;20008;-45
2022/05/04 07:42:26;;;;;;;37.58;20.30;;;;;;;;;;6226772;22;20038;-46
2022/05/04 07:44:58;;;;;;;40.15;19.05;;;;;;;;;;6236269;22;20015;-46
2022/05/04 07:47:25;;;;;;;39.15;19.42;;;;;;;;;;6234601;22;20012;-49
2022/05/04 07:49:50;;;;;;;34.70;19.10;;;;;;;;;;6234588;22;20242;-46
2022/05/04 07:52:16;;;;;;;36.63;17.75;;;;;;;;;;6233900;22;20201;-48
2022/05/04 07:54:41;;;;;;;36.33;18.65;;;;;;;;;;6236307;22;20004;-46
2022/05/04 07:57:08;;;;;;;37.55;17.88;;;;;;;;;;6207619;23;20008;-45
2022/05/04 07:59:33;;;;;;;34.45;17.23;;;;;;;;;;6208477;22;20019;-45
2022/05/04 08:04:42;;;;;;;39.50;20.40;;;;;;;;;;6234371;22;20015;-49
2022/05/04 08:07:07;;;;;;;38.75;20.40;;;;;;;;;;6229089;22;20488;-47
2022/05/04 08:09:36;;;;;;;39.63;20.05;;;;;;;;;;6200998;22;20008;-45
2022/05/04 08:12:02;;;;;;;39.63;20.98;;;;;;;;;;6231085;22;20022;-46
2022/05/04 08:14:27;;;;;;;40.78;20.38;;;;;;;;;;6229635;22;20018;-46
2022/05/04 08:16:53;;;;;;;36.72;18.65;;;;;;;;;;6232041;22;20059;-48
2022/05/04 08:19:18;;;;;;;43.78;22.08;;;;;;;;;;6230018;22;20042;-47
2022/05/04 08:21:43;;;;;;;49.00;23.27;;;;;;;;;;6221832;22;20051;-47
2022/05/04 08:24:08;;;;;;;40.03;19.65;;;;;;;;;;6219845;22;20012;-46
2022/05/04 08:26:34;;;;;;;46.58;21.65;;;;;;;;;;6229160;22;20012;-46
2022/05/04 08:28:59;;;;;;;31.83;17.50;;;;;;;;;;6233876;22;20031;-45
2022/05/04 08:31:24;;;;;;;44.58;22.88;;;;;;;;;;6222098;22;20028;-48
2022/05/04 08:33:50;;;;;;;38.97;19.08;;;;;;;;;;6231314;22;20019;-48
2022/05/04 08:36:15;;;;;;;35.13;18.92;;;;;;;;;;6205686;22;20020;-46
2022/05/04 08:38:41;;;;;;;42.53;20.15;;;;;;;;;;6231382;22;20012;-49
2022/05/04 08:41:07;;;;;;;37.53;19.08;;;;;;;;;;6208357;23;20027;-48
2022/05/04 08:43:32;;;;;;;30.83;15.85;;;;;;;;;;6232657;22;20402;-46
2022/05/04 08:45:59;;;;;;;36.67;18.02;;;;;;;;;;6235581;22;20012;-46
2022/05/04 08:48:25;;;;;;;36.28;18.63;;;;;;;;;;6232349;22;20012;-46
2022/05/04 08:50:50;;;;;;;36.53;18.42;;;;;;;;;;6235039;22;20162;-45
2022/05/04 08:53:16;;;;;;;35.13;19.13;;;;;;;;;;6205875;22;20016;-47
2022/05/04 08:55:43;;;;;;;32.63;18.70;;;;;;;;;;6231314;22;20011;-48
2022/05/04 08:58:08;;;;;;;26.35;13.65;;;;;;;;;;6236996;22;20023;-47
2022/05/04 09:00:34;;;;;;;30.02;14.82;;;;;;;;;;6233809;22;20016;-44
2022/05/04 09:02:59;;;;;;;41.42;18.13;;;;;;;;;;6237693;22;20058;-46
2022/05/04 09:05:26;;;;;;;33.60;16.73;;;;;;;;;;6233341;22;20067;-45
2022/05/04 09:07:52;;;;;;;32.63;17.92;;;;;;;;;;6237434;22;20008;-47
2022/05/04 09:10:18;;;;;;;29.65;16.90;;;;;;;;;;6233610;22;20111;-46
2022/05/04 09:12:44;;;;;;;35.33;16.83;;;;;;;;;;6234777;22;20026;-48
2022/05/04 09:15:19;;;;;;;30.45;17.27;;;;;;;;;;6237165;22;20004;-46
2022/05/04 09:17:45;;;;;;;29.02;17.77;;;;;;;;;;6234223;22;20504;-46
2022/05/04 09:22:55;;;;;;;29.92;15.57;;;;;;;;;;6235136;22;20023;-47
2022/05/04 09:25:20;;;;;;;29.42;16.38;;;;;;;;;;6228075;22;20454;-46
2022/05/04 09:27:46;;;;;;;31.23;17.48;;;;;;;;;;6236404;22;20012;-44
2022/05/04 09:30:12;;;;;;;30.95;15.48;;;;;;;;;;6234867;22;20027;-47
2022/05/04 09:32:39;;;;;;;23.40;13.77;;;;;;;;;;6236986;22;20425;-49
2022/05/04 09:35:04;;;;;;;19.45;12.18;;;;;;;;;;6234627;22;20011;-47
2022/05/04 09:45:55;;;;;;;18.55;10.50;;;;;;;;;;6236786;22;20274;-45
2022/05/04 09:48:30;;;;;;;19.17;11.95;;;;;;;;;;6233937;22;20034;-47
2022/05/04 09:51:06;;;;;;;14.70;8.77;;;;;;;;;;6235392;22;20314;-46
2022/05/04 09:53:31;;;;;;;14.13;9.55;;;;;;;;;;6235201;22;20019;-47
2022/05/04 09:55:57;;;;;;;12.93;8.20;;;;;;;;;;6236182;22;20023;-46
2022/05/04 09:58:24;;;;;;;17.92;8.20;;;;;;;;;;6234280;22;20008;-46
2022/05/04 10:00:51;;;;;;;12.50;8.68;;;;;;;;;;6236696;22;20012;-47
2022/05/04 10:03:18;;;;;;;15.25;8.15;;;;;;;;;;6235116;22;20620;-45
2022/05/04 10:05:45;;;;;;;21.92;8.48;;;;;;;;;;6235908;22;20083;-44
2022/05/04 10:08:10;;;;;;;18.98;8.00;;;;;;;;;;6235269;22;20047;-45
2022/05/04 10:10:36;;;;;;;11.32;7.47;;;;;;;;;;6233494;22;20012;-45
2022/05/04 10:13:01;;;;;;;10.00;6.90;;;;;;;;;;6235944;22;20031;-44
2022/05/04 10:15:28;;;;;;;10.95;7.25;;;;;;;;;;6234782;22;20012;-44
2022/05/04 10:18:05;;;;;;;12.43;6.78;;;;;;;;;;6234657;22;20012;-46
2022/05/04 10:20:34;;;;;;;12.73;7.35;;;;;;;;;;6235227;22;20021;-45
2022/05/04 10:23:08;;;;;;;11.20;7.03;;;;;;;;;;6229539;22;20008;-46
2022/05/04 10:25:34;;;;;;;10.48;6.28;;;;;;;;;;6229340;22;20888;-48
2022/05/04 10:28:06;;;;;;;10.75;6.50;;;;;;;;;;6208055;23;20518;-45
2022/05/04 10:30:31;;;;;;;10.45;6.97;;;;;;;;;;6231787;22;20020;-47
2022/05/04 10:33:06;;;;;;;11.60;6.55;;;;;;;;;;6236167;22;20023;-47
2022/05/04 10:35:44;;;;;;;9.93;6.20;;;;;;;;;;6233244;22;20012;-46
2022/05/04 10:38:10;;;;;;;8.32;5.72;;;;;;;;;;6236504;22;20008;-46
2022/05/04 10:40:38;;;;;;;9.65;6.10;;;;;;;;;;6235360;22;20040;-47
2022/05/04 10:43:04;;;;;;;11.32;6.32;;;;;;;;;;6236842;22;20052;-45
2022/05/04 10:45:30;;;;;;;9.18;5.30;;;;;;;;;;6234636;22;20016;-44
2022/05/04 10:48:12;;;;;;;14.35;6.95;;;;;;;;;;6236669;22;20004;-45
2022/05/04 10:50:50;;;;;;;10.27;5.90;;;;;;;;;;6235870;22;20030;-47
2022/05/04 10:53:25;;;;;;;15.40;5.20;;;;;;;;;;6234135;22;20015;-48
2022/05/04 10:56:01;;;;;;;8.77;5.22;;;;;;;;;;6237055;22;20072;-46
2022/05/04 10:58:32;;;;;;;16.30;5.20;;;;;;;;;;6234344;22;20099;-46
2022/05/04 11:01:17;;;;;;;8.68;5.53;;;;;;;;;;6236685;22;20000;-44
2022/05/04 11:03:51;;;;;;;6.50;4.22;;;;;;;;;;6235061;22;20051;-45
2022/05/04 11:06:23;;;;;;;8.13;4.43;;;;;;;;;;6235608;22;20557;-46
2022/05/04 11:08:48;;;;;;;5.38;4.15;;;;;;;;;;6236867;22;20012;-45
2022/05/04 11:11:14;;;;;;;6.65;3.80;;;;;;;;;;6233693;22;20022;-47
2022/05/04 11:13:42;;;;;;;8.93;4.22;;;;;;;;;;6236766;22;20015;-48
2022/05/04 11:16:08;;;;;;;9.10;5.13;;;;;;;;;;6234667;22;20079;-46
2022/05/04 11:18:33;;;;;;;7.90;3.90;;;;;;;;;;6235027;22;20004;-46
2022/05/04 11:21:00;;;;;;;11.68;4.63;;;;;;;;;;6236455;22;20019;-47
2022/05/04 11:23:26;;;;;;;6.70;4.35;;;;;;;;;;6234224;22;20012;-47
2022/05/04 11:25:52;;;;;;;8.07;4.07;;;;;;;;;;6208091;23;20062;-45
2022/05/04 11:28:19;;;;;;;5.38;4.00;;;;;;;;;;6231770;22;20126;-45
2022/05/04 11:30:44;;;;;;;5.18;3.28;;;;;;;;;;6235129;22;20020;-45
2022/05/04 11:33:13;;;;;;;6.78;3.72;;;;;;;;;;6232522;22;20004;-46
2022/05/04 11:35:40;;;;;;;4.07;3.35;;;;;;;;;;6233291;22;20300;-47
2022/05/04 11:38:06;;;;;;;5.57;3.63;;;;;;;;;;6232832;22;20471;-44
2022/05/04 11:40:31;;;;;;;4.57;3.55;;;;;;;;;;6234589;22;20023;-47
2022/05/04 11:42:56;;;;;;;6.88;3.50;;;;;;;;;;6231655;22;20019;-44
2022/05/04 11:45:22;;;;;;;5.35;3.72;;;;;;;;;;6234908;22;20091;-45
2022/05/04 11:47:47;;;;;;;6.45;3.00;;;;;;;;;;6233131;22;20496;-45
2022/05/04 11:50:13;;;;;;;2.78;2.42;;;;;;;;;;6233207;22;20024;-48
2022/05/04 11:52:40;;;;;;;4.65;3.20;;;;;;;;;;6234970;22;20015;-47
2022/05/04 11:55:06;;;;;;;5.95;3.40;;;;;;;;;;6206745;23;20015;-45
2022/05/04 11:57:40;;;;;;;6.03;2.30;;;;;;;;;;6233988;22;22103;-45
2022/05/04 12:00:12;;;;;;;3.15;1.95;;;;;;;;;;6233968;22;20159;-49
2022/05/04 12:02:37;;;;;;;2.40;1.98;;;;;;;;;;6235275;22;20017;-47
2022/05/04 12:05:02;;;;;;;3.38;2.58;;;;;;;;;;6231887;22;20093;-46
2022/05/04 12:07:28;;;;;;;4.70;2.15;;;;;;;;;;6235215;22;20013;-47
2022/05/04 12:09:53;;;;;;;2.72;1.73;;;;;;;;;;6233175;22;20016;-47
2022/05/04 12:12:18;;;;;;;3.75;2.72;;;;;;;;;;6234932;22;20077;-47
2022/05/04 12:14:44;;;;;;;4.05;2.58;;;;;;;;;;6234164;22;20019;-47
2022/05/04 12:17:09;;;;;;;2.90;2.15;;;;;;;;;;6231966;22;20073;-46
2022/05/04 12:19:34;;;;;;;1.83;1.55;;;;;;;;;;6230343;22;20016;-45
2022/05/04 12:22:04;;;;;;;5.40;2.00;;;;;;;;;;6230341;22;20004;-45
2022/05/04 12:24:30;;;;;;;7.88;2.33;;;;;;;;;;6229863;22;20016;-45
2022/05/04 12:26:55;;;;;;;4.97;2.08;;;;;;;;;;6231949;22;20015;-46
2022/05/04 12:34:49;;;;;;;2.53;1.88;;;;;;;;;;6228061;22;20067;-48
2022/05/04 12:37:14;;;;;;;3.60;2.03;;;;;;;;;;6231952;22;20015;-45
2022/05/04 12:39:40;;;;;;;2.40;1.88;;;;;;;;;;6231694;22;20016;-46
2022/05/04 12:42:06;;;;;;;8.65;1.90;;;;;;;;;;6231278;22;20041;-45
2022/05/04 12:44:34;;;;;;;3.00;1.92;;;;;;;;;;6230706;22;20050;-46
2022/05/04 12:47:01;;;;;;;3.00;1.77;;;;;;;;;;6234050;22;20015;-46
2022/05/04 12:49:27;;;;;;;3.50;2.58;;;;;;;;;;6229539;22;20047;-46
2022/05/04 12:51:54;;;;;;;2.90;2.15;;;;;;;;;;6230512;22;20020;-46
2022/05/04 12:54:20;;;;;;;3.78;2.25;;;;;;;;;;6228228;22;20012;-45
2022/05/04 12:56:46;;;;;;;4.03;2.13;;;;;;;;;;6229966;22;20038;-45
2022/05/04 12:59:12;;;;;;;5.85;2.97;;;;;;;;;;6233883;22;20046;-45
2022/05/04 13:01:37;;;;;;;4.72;2.38;;;;;;;;;;6235737;22;20344;-45
2022/05/04 13:16:16;;;;;;;6.05;2.42;;;;;;;;;;6291340;22;20081;-46
2022/05/04 13:18:41;;;;;;;5.47;3.03;;;;;;;;;;6297727;22;20023;-46
2022/05/04 13:21:06;;;;;;;5.25;3.13;;;;;;;;;;6299297;22;20042;-47
2022/05/04 13:23:32;;;;;;;4.07;3.40;;;;;;;;;;6296895;22;20019;-45
2022/05/04 13:25:58;;;;;;;6.55;3.42;;;;;;;;;;6299191;22;20011;-46
2022/05/04 13:28:23;;;;;;;6.90;3.63;;;;;;;;;;6295457;22;20018;-46
2022/05/04 13:30:48;;;;;;;5.13;3.63;;;;;;;;;;6293281;22;20054;-45
2022/05/04 13:33:14;;;;;;;7.22;3.90;;;;;;;;;;6289519;22;20348;-47
2022/05/04 13:35:40;;;;;;;6.03;4.38;;;;;;;;;;6299499;22;20621;-47
2022/05/04 13:38:05;;;;;;;7.03;3.90;;;;;;;;;;6297296;22;20008;-47
2022/05/04 13:40:31;;;;;;;7.57;5.03;;;;;;;;;;6298660;22;20019;-46
2022/05/04 13:42:56;;;;;;;12.52;5.13;;;;;;;;;;6296629;22;20015;-51
2022/05/04 13:45:21;;;;;;;5.88;4.03;;;;;;;;;;6268770;22;20007;-46
2022/05/04 13:47:47;;;;;;;10.80;5.72;;;;;;;;;;6263336;22;20042;-46
2022/05/04 13:53:30;;;;;;;7.53;5.22;;;;;;;;;;6288681;22;20111;-45
2022/05/04 13:55:52;;;;;;;9.70;5.47;;;;;;;;;;6276563;22;20003;-48
2022/05/04 13:58:23;;;;;;;8.00;5.88;;;;;;;;;;6288360;22;20015;-50
2022/05/04 14:00:51;;;;;;;8.25;4.07;;;;;;;;;;6288690;22;20018;-46
2022/05/04 14:03:17;;;;;;;11.68;6.00;;;;;;;;;;6262111;22;20019;-49
2022/05/04 14:05:42;;;;;;;7.50;5.60;;;;;;;;;;6290189;22;20076;-48
2022/05/04 14:08:08;;;;;;;14.65;5.60;;;;;;;;;;6288264;22;20022;-47
2022/05/04 14:10:34;;;;;;;7.90;4.65;;;;;;;;;;6291637;22;20134;-45
2022/05/04 14:13:00;;;;;;;7.70;5.40;;;;;;;;;;6295692;22;20038;-47
2022/05/04 14:15:26;;;;;;;12.30;5.57;;;;;;;;;;6297206;22;20023;-46
2022/05/04 14:17:51;;;;;;;9.45;5.35;;;;;;;;;;6296387;22;20023;-46
2022/05/04 14:20:17;;;;;;;9.43;4.75;;;;;;;;;;6269170;22;20029;-45
2022/05/04 14:22:42;;;;;;;8.32;5.75;;;;;;;;;;6295153;22;20075;-47
2022/05/04 14:25:08;;;;;;;6.25;4.53;;;;;;;;;;6282038;22;20581;-45
2022/05/04 14:27:33;;;;;;;6.53;4.50;;;;;;;;;;6294781;22;20011;-48
2022/05/04 14:29:58;;;;;;;7.50;5.18;;;;;;;;;;6297966;22;20011;-47
2022/05/04 14:32:24;;;;;;;8.18;4.75;;;;;;;;;;6294910;22;20420;-46
2022/05/04 14:34:49;;;;;;;7.82;5.80;;;;;;;;;;6297506;22;20034;-46
2022/05/04 14:37:14;;;;;;;6.85;4.28;;;;;;;;;;6294109;22;20452;-46
2022/05/04 14:39:39;;;;;;;6.03;4.35;;;;;;;;;;6298771;22;20007;-46
2022/05/04 14:42:05;;;;;;;6.45;4.60;;;;;;;;;;6295160;22;20018;-46
2022/05/04 14:44:31;;;;;;;6.50;4.38;;;;;;;;;;6296165;22;20593;-45
2022/05/04 14:46:57;;;;;;;7.55;4.78;;;;;;;;;;6294590;22;20011;-50
2022/05/04 14:49:23;;;;;;;7.50;4.68;;;;;;;;;;6295887;22;20034;-45
2022/05/04 14:51:49;;;;;;;8.55;4.72;;;;;;;;;;6296578;22;20015;-46
2022/05/04 14:54:14;;;;;;;7.70;4.95;;;;;;;;;;6297319;22;20031;-45
2022/05/04 14:56:39;;;;;;;8.07;5.78;;;;;;;;;;6289420;22;20072;-44
2022/05/04 14:59:04;;;;;;;6.50;4.60;;;;;;;;;;6269907;22;20018;-45
2022/05/04 15:01:30;;;;;;;7.55;4.70;;;;;;;;;;6295885;22;20019;-46
2022/05/04 15:06:39;;;;;;;9.43;5.13;;;;;;;;;;6297715;22;20026;-47
2022/05/04 15:09:04;;;;;;;8.00;4.72;;;;;;;;;;6297811;22;20074;-46
2022/05/04 15:11:30;;;;;;;5.70;4.15;;;;;;;;;;6296137;22;20034;-45
2022/05/04 15:13:55;;;;;;;7.95;4.80;;;;;;;;;;6299033;22;20082;-47
2022/05/04 15:16:21;;;;;;;6.80;4.95;;;;;;;;;;6296616;22;20036;-45